Myrtle Beach International Airport
KMYR : now visible

Airfield :











YOU CAN JOIN US ON...

 
LOGIN :

Register | Disclaimer

   EN    FR    IT 

 









Legend :    VFR   Marginal VFR   IFR   Intensive IFR   Very Intensive IFR
Visi :
Ceiling :
>= 8 km
>= 3000ft
5 to 8 km
1000 to 3000 ft
1500m to 5 km
500 to 1000 ft
800 to 1500m
200 to 500 ft
< 800m
< 200 ft
Symbols :   Thunderstorms  Fog  Heavy snow  Heavy precipitations  Wind > 20 kt






- Airport Elevation : 25 ft
- IATA code : MYR


KMYR - Myrtle Beach International

CURRENT METAR :
  • 100456Z AUTO 19010KT 10SM CLR 22/20 A3000 RMK AO2 SLP159 T02220200 402560161

EXPIRED METARs :
  • 100356Z AUTO 19011KT 10SM CLR 22/18 A3001 RMK AO2 SLP162 T02170183
  • 100256Z AUTO 21009KT 10SM CLR 22/17 A3004 RMK AO2 SLP171 T02220167 53012

TAF KMYR
Valid from the 10 at 06:00 until the 11 at 06:00 UTC


100532Z 1006/1106 21013G18KT P6SM SCT150 BKN250
FM101400 22017G24KT P6SM SCT040 BKN150 OVC200
PROB30 1020/1102 VRB20G30KT 3SM TSRA BKN025CB OVC040
FM110200 27009KT P6SM BKN025
PROB30 1102/1106 5SM -SHRA BR OVC012
KZJX FIR / North America



MET'MAP, your aeronautical weather chart ! - Copyright ORBIFLY December 2007 - Disclaimer

ORBIFLY MET'MAP TEAM :

Programming & Development : Alexandra Zaïnal
Concept & original design : Baudouin d'Aumeries
Assistance for programming : Marc-Olivier Méhu
Technical & hardware support : Manuel Goepfert

Contact : metmap@orbifly.com




SOURCES & CREDITS :

   NOAA       Earth
Advisory